Ana Sayfa
METAR-TAF:

METAR-TAF

Havaalanları :

Cheboygan County Airport

Cheboygan, Michigan, Amerika Birleşik Devletleri

Enlem: 45-39-13N, Boylam: 084-31-09W, yükseklik: 195 m

Güncel hava durumu gözlemi

Rapor saat 21:15 UTC de 13 dakika önce yapıldı.
Rüzgar batıdan 10 kt ve 16 kt'a kadar ani rüzgarlar
Sıcaklık -10°C
Nem 79%
Basınç 1025 hPa
Görüş mesafesi: 8.0 km
3300 ft yükseklikte çok bulutlu
Toz Pusu

METAR: KSLH 112115Z AUTO 26010G16KT 5SM HZ OVC033 M10/M13 A3028 RMK AO2 T11021135

Saat: 16:28 (21:28 UTC)


TAF: eksik

4.000'den fazla havaalanı için hava durumu gözlemleri ve tahminleri (METAR ve TAF raporları).

Kullanılabilir istasyonlar harita üzerinde sarı ve kırmızı noktalarla gösterilir.

İstasyonun adını görmek için fareyi noktanın üzerinde gezdirin.

Sonrasında hava gözlem ve tahminlerini görmek için tıklayın.

Haritayı değiştirmek için: yaklaştırmak için siyah artı işaretli yeşil düğmeye ve uzaklaştırmak için de eksi işaretli düğmeye hızla tıklayın; bitişik haritalar için yeşil okları kullanın.


METAR-TAF: